Time;durP1;ratioP1;P1;durP2;ratioP2;P2;SDS_P1;SDS_P2;PMS_P1;PMS_P2;Temp;Humidity;BMP_temperature;BMP_pressure;BME280_temperature;BME280_humidity;BME280_pressure;Samples;Min_cycle;Max_cycle;Signal;HPM_P1;HPM_P2
2023/01/08 00:02:30;;;;;;;8.40;2.80;;;;;;;-12.33;74.62;101724.03;10414023;28;20145;-80
2023/01/08 00:07:31;;;;;;;9.07;2.92;;;;;;;-12.50;74.92;101721.34;10412777;28;20046;-80
2023/01/08 00:12:33;;;;;;;5.38;2.30;;;;;;;-12.51;74.54;101715.38;10413925;28;20037;-80
2023/01/08 00:17:34;;;;;;;9.07;3.60;;;;;;;-12.98;74.46;101658.69;10412194;28;20058;-80
2023/01/08 00:22:34;;;;;;;8.30;3.65;;;;;;;-12.97;74.81;101671.53;10412409;28;20397;-79
2023/01/08 00:27:35;;;;;;;7.80;3.25;;;;;;;-12.55;74.75;101738.41;10413933;28;20084;-80
2023/01/08 00:32:36;;;;;;;7.88;2.67;;;;;;;-13.08;75.04;101642.44;10412858;28;20048;-79
2023/01/08 00:37:37;;;;;;;8.98;2.90;;;;;;;-13.65;74.82;101549.09;10411558;28;20173;-79
2023/01/08 00:42:37;;;;;;;11.15;3.25;;;;;;;-12.55;75.00;101723.03;10413863;28;20448;-79
2023/01/08 00:47:38;;;;;;;4.88;2.63;;;;;;;-12.48;75.12;101747.81;10411869;28;20053;-79
2023/01/08 00:52:39;;;;;;;7.47;3.78;;;;;;;-12.46;74.27;101758.94;10413448;28;20048;-79
2023/01/08 00:57:40;;;;;;;9.07;3.65;;;;;;;-12.54;74.39;101758.88;10413331;28;20104;-79
2023/01/08 01:02:41;;;;;;;12.02;4.45;;;;;;;-12.54;74.62;101775.94;10439133;28;20045;-79
2023/01/08 01:07:43;;;;;;;6.18;3.00;;;;;;;-13.14;75.15;101681.59;10453641;28;20051;-79
2023/01/08 01:12:44;;;;;;;13.82;5.18;;;;;;;-12.59;74.89;101765.69;10451688;28;20041;-79
2023/01/08 01:17:45;;;;;;;13.05;5.53;;;;;;;-12.57;74.77;101776.75;10453122;28;20041;-79
2023/01/08 01:22:46;;;;;;;13.13;5.72;;;;;;;-13.30;74.80;101673.81;10441868;28;20048;-79
2023/01/08 01:27:47;;;;;;;13.45;5.18;;;;;;;-12.91;74.84;101725.28;10417901;28;20052;-79
2023/01/08 01:32:48;;;;;;;9.77;3.78;;;;;;;-13.23;74.81;101673.84;10420655;28;20049;-79
2023/01/08 01:37:49;;;;;;;7.03;3.35;;;;;;;-12.54;75.02;101773.38;10420290;28;20501;-79
2023/01/08 01:42:49;;;;;;;11.77;3.55;;;;;;;-12.64;74.70;101775.00;10419384;28;20037;-79
2023/01/08 01:48:05;;;;;;;6.97;2.90;;;;;;;-12.70;74.82;101777.50;10419761;28;20045;-78
2023/01/08 01:53:14;;;;;;;7.38;2.92;;;;;;;-12.81;74.70;101774.84;10423457;28;20128;-79
2023/01/08 01:58:17;;;;;;;6.88;2.92;;;;;;;-12.70;74.78;101792.88;10451576;28;20500;-79
2023/01/08 02:03:24;;;;;;;7.15;2.95;;;;;;;-12.71;74.99;101775.78;10460111;28;20510;-79
2023/01/08 02:08:40;;;;;;;11.35;3.75;;;;;;;-12.95;74.68;101744.03;10454404;28;20083;-80
2023/01/08 02:13:49;;;;;;;6.95;3.13;;;;;;;-12.65;74.88;101775.88;10451774;28;20084;-82
2023/01/08 02:18:58;;;;;;;8.85;3.17;;;;;;;-12.73;74.77;101775.78;10422030;28;20095;-83
2023/01/08 02:24:27;;;;;;;12.13;3.28;;;;;;;-12.65;74.85;101781.84;10418703;28;20081;-82
2023/01/08 02:29:31;;;;;;;8.40;3.65;;;;;;;-12.72;74.86;101789.44;10416525;28;20178;-83
2023/01/08 02:34:32;;;;;;;;;;;;;;;-12.69;74.78;101792.00;10417986;28;20045;-82
2023/01/08 02:39:45;;;;;;;6.20;2.95;;;;;;;-13.06;74.25;101757.56;10443261;28;19920;-82
2023/01/08 02:44:52;;;;;;;7.13;3.05;;;;;;;-12.79;74.48;101821.78;10457996;28;20048;-82
2023/01/08 02:50:05;;;;;;;6.50;2.83;;;;;;;-12.88;74.07;101802.06;10459794;28;20045;-80
2023/01/08 02:55:07;;;;;;;11.07;4.07;;;;;;;-13.08;74.80;101780.53;10459258;28;20546;-83
2023/01/08 03:00:09;;;;;;;7.35;2.95;;;;;;;-12.87;74.84;101803.78;10457039;28;20446;-82
2023/01/08 03:05:21;;;;;;;7.75;2.75;;;;;;;-13.05;74.65;101797.63;10457513;28;20465;-82
2023/01/08 03:10:25;;;;;;;7.83;3.73;;;;;;;-13.05;74.93;101793.38;10458062;28;20484;-83
2023/01/08 03:15:36;;;;;;;;;;;;;;;-12.71;75.13;101832.06;10457794;28;20048;-82
2023/01/08 03:20:38;;;;;;;11.35;3.83;;;;;;;-12.95;74.56;101817.34;10457203;28;19963;-82
2023/01/08 03:25:43;;;;;;;11.80;4.10;;;;;;;-13.04;74.67;101819.78;10456142;28;20055;-83
2023/01/08 03:30:46;;;;;;;14.77;5.05;;;;;;;-12.88;74.63;101852.38;10455673;28;20459;-83
2023/01/08 03:35:50;;;;;;;9.07;3.80;;;;;;;-13.11;74.39;101834.22;10455834;28;20572;-83
2023/01/08 03:40:56;;;;;;;7.72;2.65;;;;;;;-13.29;74.14;101803.34;10455930;28;20051;-82
2023/01/08 03:46:01;;;;;;;7.72;2.80;;;;;;;-13.33;74.69;101814.41;10456564;28;20535;-82
2023/01/08 03:51:02;;;;;;;10.13;3.15;;;;;;;-13.02;74.64;101853.94;10456534;28;20044;-82
2023/01/08 03:56:03;;;;;;;8.48;2.80;;;;;;;-13.11;74.80;101844.44;10455484;28;20047;-83
2023/01/08 04:01:04;;;;;;;9.88;3.42;;;;;;;-13.06;74.45;101870.94;10454859;28;20044;-83
2023/01/08 04:06:05;;;;;;;6.13;2.40;;;;;;;-13.22;74.67;101856.25;10455480;28;20060;-83
2023/01/08 04:11:06;;;;;;;5.40;2.42;;;;;;;-13.72;74.41;101790.91;10454587;28;20041;-82
2023/01/08 04:16:07;;;;;;;8.77;2.75;;;;;;;-13.14;74.55;101896.41;10454591;28;20107;-82
2023/01/08 04:21:09;;;;;;;7.38;3.08;;;;;;;-13.60;74.59;101815.75;10454277;28;20056;-83
2023/01/08 04:26:10;;;;;;;8.70;2.75;;;;;;;-13.39;73.98;101867.16;10453994;28;20052;-82
2023/01/08 04:31:10;;;;;;;10.50;2.80;;;;;;;-13.92;74.20;101775.28;10453882;28;20080;-82
2023/01/08 04:36:11;;;;;;;10.27;3.75;;;;;;;-13.50;74.98;101861.03;10453240;28;20116;-81
2023/01/08 04:41:12;;;;;;;7.68;3.63;;;;;;;-13.25;75.31;101902.25;10453922;28;20083;-83
2023/01/08 04:46:13;;;;;;;6.82;2.75;;;;;;;-13.18;75.19;101906.59;10454615;28;20082;-83
2023/01/08 04:51:14;;;;;;;6.63;3.30;;;;;;;-13.38;75.17;101873.13;10454119;28;20072;-87
2023/01/08 04:56:14;;;;;;;8.07;3.13;;;;;;;-13.17;74.85;101919.38;10454447;28;20393;-87
2023/01/08 05:01:23;;;;;;;9.57;3.38;;;;;;;-13.31;74.53;101886.84;10458822;28;20488;-87
2023/01/08 05:06:25;;;;;;;13.43;4.40;;;;;;;-13.48;74.33;101878.97;10462333;28;20480;-86
2023/01/08 05:11:26;;;;;;;12.77;5.32;;;;;;;-13.46;74.36;101855.16;10461835;28;20106;-87
2023/01/08 05:16:27;;;;;;;25.20;7.22;;;;;;;-12.84;74.27;101930.03;10462806;28;20092;-87
2023/01/08 05:21:28;;;;;;;9.63;3.78;;;;;;;-12.65;74.31;101932.84;10460310;28;20069;-85
2023/01/08 05:26:28;;;;;;;7.10;3.30;;;;;;;-12.52;73.70;101915.91;10459738;28;20099;-88
2023/01/08 05:31:29;;;;;;;9.75;3.20;;;;;;;-12.85;73.16;101833.66;10421807;28;20041;-82
2023/01/08 05:36:30;;;;;;;7.20;3.00;;;;;;;-12.06;73.24;101947.09;10442333;28;20076;-81
2023/01/08 05:41:31;;;;;;;8.70;4.20;;;;;;;-11.84;73.17;101939.56;10453126;28;20046;-86
2023/01/08 05:46:32;;;;;;;8.10;3.25;;;;;;;-11.64;72.33;101957.66;10422398;28;20037;-88
2023/01/08 05:51:32;;;;;;;7.93;3.35;;;;;;;-11.49;71.89;101976.56;10428643;28;20037;-76
2023/01/08 05:56:33;;;;;;;7.22;3.58;;;;;;;-11.36;71.57;101979.25;10435704;28;20055;-82
2023/01/08 06:01:34;;;;;;;22.48;3.80;;;;;;;-11.28;71.61;101963.03;10469270;28;20472;-83
2023/01/08 06:06:35;;;;;;;8.00;3.15;;;;;;;-11.06;71.12;101981.16;10469416;28;20051;-83
2023/01/08 06:11:35;;;;;;;6.43;2.95;;;;;;;-11.16;70.81;101967.38;10445111;28;20037;-83
2023/01/08 06:16:36;;;;;;;5.28;3.08;;;;;;;-11.01;70.79;101981.16;10456370;28;20081;-84
2023/01/08 06:21:37;;;;;;;8.57;3.35;;;;;;;-11.07;70.94;101962.34;10427874;28;20420;-84
2023/01/08 06:26:38;;;;;;;11.73;3.65;;;;;;;-10.97;71.06;101964.94;10462105;28;20051;-85
2023/01/08 06:31:38;;;;;;;6.80;3.10;;;;;;;-11.02;70.70;101928.13;10461746;28;20037;-86
2023/01/08 06:36:39;;;;;;;10.23;3.40;;;;;;;-10.84;70.82;101944.47;10448558;28;20041;-81
2023/01/08 06:41:42;;;;;;;7.72;3.28;;;;;;;-11.21;70.94;101865.63;10417844;28;20456;-78
2023/01/08 06:46:43;;;;;;;9.38;3.60;;;;;;;-10.45;70.91;101947.19;10416892;28;20053;-79
2023/01/08 06:51:44;;;;;;;8.95;3.13;;;;;;;-10.36;70.36;101957.47;10417216;28;20041;-85
2023/01/08 06:56:48;;;;;;;7.10;3.50;;;;;;;-10.47;70.13;101946.31;10416508;28;20045;-86
2023/01/08 07:01:49;;;;;;;6.10;3.08;;;;;;;-10.52;69.90;101924.91;10417204;28;20041;-87
2023/01/08 07:06:50;;;;;;;9.90;3.92;;;;;;;-10.53;69.21;101933.44;10416708;28;20045;-84
2023/01/08 07:11:51;;;;;;;7.60;3.45;;;;;;;-10.04;69.73;101985.78;10417201;28;20049;-84
2023/01/08 07:16:51;;;;;;;7.32;3.17;;;;;;;-9.99;68.80;101989.22;10416371;28;20057;-82
2023/01/08 07:21:52;;;;;;;6.53;3.08;;;;;;;-9.98;69.28;101947.25;10415657;28;20092;-81
2023/01/08 07:26:53;;;;;;;8.02;3.42;;;;;;;-9.59;69.01;101981.53;10414994;28;20195;-81
2023/01/08 07:31:54;;;;;;;8.70;3.50;;;;;;;-9.62;68.67;101948.09;10416422;28;20037;-80
2023/01/08 07:36:55;;;;;;;7.53;3.83;;;;;;;-9.64;68.57;101944.66;10425974;28;20103;-81
2023/01/08 07:41:55;;;;;;;7.85;3.45;;;;;;;-9.38;69.07;101974.69;10414481;28;20045;-80
2023/01/08 07:46:56;;;;;;;9.20;3.75;;;;;;;-9.55;69.38;101902.66;10432015;28;20143;-78
2023/01/08 07:51:57;;;;;;;7.20;3.28;;;;;;;-9.81;68.52;101851.22;10421999;28;20048;-79
2023/01/08 07:56:58;;;;;;;7.50;3.60;;;;;;;-9.10;68.54;101952.31;10424664;28;20432;-85
2023/01/08 08:01:59;;;;;;;9.50;3.70;;;;;;;-9.37;68.77;101912.91;10416326;28;20044;-83
2023/01/08 08:06:59;;;;;;;7.22;3.35;;;;;;;-9.17;67.84;101930.88;10416054;28;20128;-84
2023/01/08 08:12:00;;;;;;;6.78;2.63;;;;;;;-9.04;67.50;101929.97;10416142;28;20425;-83
2023/01/08 08:17:01;;;;;;;7.82;3.40;;;;;;;-9.10;67.21;101896.53;10416521;28;20088;-84
2023/01/08 08:22:02;;;;;;;8.05;3.38;;;;;;;-8.74;66.94;101929.00;10428116;28;20513;-83
2023/01/08 08:27:03;;;;;;;6.28;3.38;;;;;;;-8.61;66.80;101895.47;10450543;28;20159;-77
2023/01/08 08:32:04;;;;;;;4.88;2.30;;;;;;;-8.99;66.55;101796.09;10438404;28;20037;-78
2023/01/08 08:37:04;;;;;;;6.10;2.67;;;;;;;-8.27;66.11;101906.41;10437927;28;20037;-76
2023/01/08 08:42:05;;;;;;;10.63;3.08;;;;;;;-8.29;66.75;101862.56;10432652;28;20053;-79
2023/01/08 08:47:08;;;;;;;8.65;3.38;;;;;;;-8.61;64.68;101789.84;10412983;28;20110;-76
2023/01/08 08:52:08;;;;;;;6.95;3.03;;;;;;;-8.89;65.15;101733.34;10413867;28;20044;-75
2023/01/08 08:57:09;;;;;;;7.57;3.00;;;;;;;-8.15;65.37;101830.69;10416817;28;20413;-77
2023/01/08 09:02:11;;;;;;;5.20;2.65;;;;;;;-7.89;64.88;101864.84;10437911;28;20494;-81
2023/01/08 09:07:11;;;;;;;6.32;3.00;;;;;;;-8.55;64.52;101754.56;10438552;28;20157;-78
2023/01/08 09:12:12;;;;;;;6.43;2.95;;;;;;;-7.87;64.13;101867.41;10427640;28;20120;-86
2023/01/08 09:17:13;;;;;;;6.70;2.90;;;;;;;-8.03;64.11;101817.69;10415194;28;20413;-82
2023/01/08 09:22:14;;;;;;;6.88;2.83;;;;;;;-7.85;64.21;101816.66;10414519;28;20080;-85
2023/01/08 09:27:15;;;;;;;11.32;3.03;;;;;;;-7.61;63.96;101836.19;10413784;28;20072;-83
2023/01/08 09:32:15;;;;;;;5.43;2.33;;;;;;;-7.39;62.81;101831.66;10414295;28;20069;-84
2023/01/08 09:37:16;;;;;;;11.75;3.13;;;;;;;-7.30;62.92;101835.84;10414252;28;20128;-84
2023/01/08 09:42:25;;;;;;;8.00;2.83;;;;;;;-7.26;61.71;101829.81;10414500;28;20033;-84
2023/01/08 09:47:42;;;;;;;8.55;3.03;;;;;;;-6.97;61.10;101832.88;10428510;28;20548;-82
2023/01/08 09:52:44;;;;;;;6.97;2.80;;;;;;;-6.86;61.90;101829.28;10436848;28;20053;-78
2023/01/08 09:57:46;;;;;;;5.53;2.63;;;;;;;-6.93;61.31;101816.44;10437509;28;20029;-80
2023/01/08 10:02:47;;;;;;;4.90;2.35;;;;;;;-6.90;61.65;101806.06;10438394;28;20056;-79
2023/01/08 10:07:48;;;;;;;8.15;3.53;;;;;;;-6.98;61.82;101835.47;10436069;28;20037;-82
2023/01/08 10:12:50;;;;;;;6.57;2.30;;;;;;;-6.82;61.27;101808.56;10448509;28;20044;-78
2023/01/08 10:18:02;;;;;;;6.47;2.63;;;;;;;-7.33;60.52;101719.72;10436417;28;20532;-79
2023/01/08 10:23:15;;;;;;;8.38;2.33;;;;;;;-7.20;59.26;101716.97;10437524;28;20051;-80
2023/01/08 10:28:23;;;;;;;6.90;3.08;;;;;;;-6.78;59.58;101788.69;10443377;28;20055;-81
2023/01/08 10:33:29;;;;;;;9.13;3.35;;;;;;;-6.85;59.17;101771.56;10452331;28;20082;-79
2023/01/08 10:38:38;;;;;;;14.65;3.85;;;;;;;-6.93;59.43;101733.78;10454201;28;20397;-79
2023/01/08 10:43:48;;;;;;;5.50;2.58;;;;;;;-6.94;58.42;101751.88;10452949;28;20094;-78
2023/01/08 10:48:55;;;;;;;7.80;2.88;;;;;;;-6.98;58.77;101748.50;10450229;28;20404;-77
2023/01/08 10:54:22;;;;;;;6.40;2.55;;;;;;;-6.87;57.91;101761.25;10452264;28;20084;-75
2023/01/08 10:59:24;;;;;;;6.85;2.25;;;;;;;-6.83;60.44;101786.16;10448223;28;20044;-75
2023/01/08 11:04:32;;;;;;;7.22;2.45;;;;;;;-6.84;59.85;101793.97;10443221;28;20043;-76
2023/01/08 11:09:40;;;;;;;8.57;3.30;;;;;;;-7.26;59.73;101726.53;10446523;28;20038;-77
2023/01/08 11:14:45;;;;;;;9.48;3.47;;;;;;;-7.41;58.45;101702.63;10446664;28;20114;-81
2023/01/08 11:19:46;;;;;;;8.63;3.45;;;;;;;-7.20;59.43;101760.00;10451071;28;20139;-76
2023/01/08 11:24:51;;;;;;;9.35;2.92;;;;;;;-6.96;58.92;101802.72;10447847;28;20045;-77
2023/01/08 11:30:01;;;;;;;7.00;2.90;;;;;;;-7.00;59.08;101808.78;10437663;28;20088;-79
2023/01/08 11:35:14;;;;;;;8.15;2.75;;;;;;;-7.51;59.79;101716.50;10452270;28;20436;-78
2023/01/08 11:40:17;;;;;;;8.82;3.10;;;;;;;-7.02;59.68;101803.66;10452234;28;20174;-75
2023/01/08 11:45:26;;;;;;;10.48;4.32;;;;;;;-6.87;57.94;101812.94;10451003;28;20499;-74
2023/01/08 11:50:34;;;;;;;6.18;2.65;;;;;;;-7.08;58.90;101789.97;10447462;28;20413;-79
2023/01/08 11:55:55;;;;;;;8.00;2.92;;;;;;;-7.15;57.93;101802.09;10449496;28;20044;-80
2023/01/08 12:01:31;;;;;;;9.80;4.45;;;;;;;-7.24;57.17;101797.94;10449180;28;20124;-79
2023/01/08 12:06:55;;;;;;;15.45;6.75;;;;;;;-7.18;58.08;101815.03;10448040;28;20510;-80
2023/01/08 12:12:12;;;;;;;7.88;3.70;;;;;;;-7.13;59.13;101847.69;10445564;28;20435;-76
2023/01/08 12:17:48;;;;;;;8.85;3.05;;;;;;;-7.32;57.67;101811.81;10448378;28;20799;-77
2023/01/08 12:23:20;;;;;;;9.55;3.25;;;;;;;-7.05;56.75;101865.69;10447070;28;20088;-76
2023/01/08 12:28:32;;;;;;;7.88;3.13;;;;;;;-7.24;57.78;101864.19;10448969;28;20132;-78
2023/01/08 12:33:38;;;;;;;11.30;5.43;;;;;;;-7.80;58.65;101773.63;10447819;28;20068;-77
2023/01/08 12:38:43;;;;;;;10.00;3.63;;;;;;;-7.35;58.93;101870.34;10448404;28;20040;-78
2023/01/08 12:44:03;;;;;;;11.95;5.65;;;;;;;-7.58;58.47;101852.50;10452475;28;20389;-78
2023/01/08 12:49:06;;;;;;;15.98;6.70;;;;;;;-7.76;59.24;101846.69;10453874;28;20416;-77
2023/01/08 12:54:41;;;;;;;12.20;5.20;;;;;;;-8.52;58.47;101721.06;10449455;28;20118;-80
2023/01/08 13:00:04;;;;;;;9.00;3.55;;;;;;;-7.60;59.06;101884.34;10430457;28;20057;-77
2023/01/08 13:05:31;;;;;;;17.55;3.55;;;;;;;-7.47;59.68;101911.78;10426550;28;20419;-79
2023/01/08 13:10:47;;;;;;;7.97;2.95;;;;;;;-8.08;59.74;101838.34;10413435;28;20042;-75
2023/01/08 13:15:48;;;;;;;9.48;3.42;;;;;;;-8.12;60.72;101833.25;10482241;28;20531;-76
2023/01/08 13:20:57;;;;;;;8.07;3.25;;;;;;;-7.63;60.89;101929.13;10496424;28;20056;-75
2023/01/08 13:26:00;;;;;;;23.90;8.27;;;;;;;-8.30;60.81;101829.94;10501970;28;20048;-78
2023/01/08 13:31:11;;;;;;;10.95;4.60;;;;;;;-7.86;61.19;101928.47;10501078;28;20493;-75
2023/01/08 13:36:12;;;;;;;7.28;3.42;;;;;;;-7.90;61.66;101927.59;10517662;27;20496;-79
2023/01/08 13:41:34;;;;;;;9.75;3.42;;;;;;;-7.96;62.03;101944.84;10540958;28;20048;-80
2023/01/08 13:46:39;;;;;;;7.10;3.08;;;;;;;-8.24;62.30;101910.69;10549146;28;20094;-81
2023/01/08 13:51:43;;;;;;;18.73;3.72;;;;;;;-8.23;62.85;101930.44;10546159;28;20040;-77
2023/01/08 13:56:48;;;;;;;14.18;3.03;;;;;;;-8.60;62.83;101876.56;10547575;28;20076;-83
2023/01/08 14:01:55;;;;;;;8.40;3.05;;;;;;;-8.74;63.23;101867.19;10548548;28;20048;-84
2023/01/08 14:07:13;;;;;;;10.63;3.40;;;;;;;-8.24;63.48;101969.97;10549721;28;20093;-83
2023/01/08 14:12:20;;;;;;;10.63;4.97;;;;;;;-8.47;63.65;101947.78;10546642;28;20035;-76
2023/01/08 14:17:29;;;;;;;15.82;5.32;;;;;;;-8.31;63.50;101974.31;10545659;28;20147;-77
2023/01/08 14:22:33;;;;;;;12.85;4.28;;;;;;;-8.39;63.88;101979.53;10543729;28;20059;-82
2023/01/08 14:27:34;;;;;;;15.60;6.28;;;;;;;-8.53;64.39;101963.25;10543508;28;20040;-76
2023/01/08 14:32:42;;;;;;;20.98;7.30;;;;;;;-8.52;64.57;101985.63;10541557;28;20044;-75
2023/01/08 14:37:43;;;;;;;17.50;8.10;;;;;;;-8.85;64.57;101961.69;10521082;28;20118;-79
2023/01/08 14:42:52;;;;;;;21.42;8.98;;;;;;;-8.65;64.92;102000.25;10499992;28;20044;-79
2023/01/08 14:48:01;;;;;;;13.85;6.75;;;;;;;-8.93;65.08;101968.56;10499952;28;20097;-80
2023/01/08 14:53:14;;;;;;;21.92;7.13;;;;;;;-8.74;65.57;102010.56;10507799;28;20040;-80
2023/01/08 14:58:19;;;;;;;13.93;4.30;;;;;;;-8.97;65.98;101996.06;10525206;28;20039;-80
2023/01/08 15:03:37;;;;;;;10.35;4.63;;;;;;;-9.25;66.27;101971.22;10500080;28;20476;-79
2023/01/08 15:08:39;;;;;;;13.57;5.22;;;;;;;-8.91;66.09;102026.09;10515762;28;20040;-79
2023/01/08 15:13:40;;;;;;;14.60;5.05;;;;;;;-9.29;66.04;101960.06;10537353;28;20522;-79
2023/01/08 15:18:43;;;;;;;13.02;5.55;;;;;;;-9.54;66.04;101924.94;10541564;28;20142;-80
2023/01/08 15:23:49;;;;;;;11.98;6.38;;;;;;;-8.97;65.93;102037.25;10540290;28;20032;-80
2023/01/08 15:29:03;;;;;;;14.30;5.97;;;;;;;-9.20;65.94;102029.56;10522665;28;20040;-80
2023/01/08 15:34:03;;;;;;;;;;;;;;;-9.16;65.68;102047.56;10498416;28;20036;-80
2023/01/08 15:39:05;;;;;;;16.00;5.78;;;;;;;-9.41;66.28;102057.88;10498516;28;19916;-78
2023/01/08 15:44:07;;;;;;;18.90;7.88;;;;;;;-9.77;66.52;102025.25;10496986;28;20052;-80
2023/01/08 15:49:07;;;;;;;32.50;9.20;;;;;;;-10.22;67.08;101962.63;10497664;28;20090;-82
2023/01/08 15:54:12;;;;;;;28.00;9.85;;;;;;;-9.69;67.57;102077.53;10499719;28;20089;-79
2023/01/08 15:59:13;;;;;;;19.85;7.78;;;;;;;-9.96;67.87;102083.47;10528974;28;20044;-81
2023/01/08 16:04:14;;;;;;;24.80;7.75;;;;;;;-10.72;68.28;101966.75;10529820;28;20036;-78
2023/01/08 16:09:14;;;;;;;17.95;7.03;;;;;;;-10.13;68.08;102084.28;10518597;28;20054;-75
2023/01/08 16:14:15;;;;;;;14.02;5.78;;;;;;;-10.33;68.19;102080.81;10495371;28;20056;-82
2023/01/08 16:19:16;;;;;;;14.50;5.82;;;;;;;-10.15;68.41;102103.97;10505788;28;20036;-82
2023/01/08 16:24:17;;;;;;;19.25;9.57;;;;;;;-10.67;68.44;102013.88;10528815;28;20109;-76
2023/01/08 16:29:17;;;;;;;13.55;5.70;;;;;;;-10.01;68.20;102121.19;10525196;28;20458;-74
2023/01/08 16:34:18;;;;;;;10.45;4.75;;;;;;;-10.04;68.05;102121.16;10515190;28;20047;-73
2023/01/08 16:39:19;;;;;;;13.60;5.28;;;;;;;-10.77;68.08;102003.53;10537675;28;20114;-76
2023/01/08 16:44:23;;;;;;;15.35;6.57;;;;;;;-10.13;68.46;102145.97;10536489;28;20040;-80
2023/01/08 16:49:23;;;;;;;19.30;7.85;;;;;;;-10.25;68.42;102156.19;10508751;28;20097;-81
2023/01/08 16:54:26;;;;;;;18.73;6.93;;;;;;;-10.32;68.78;102149.31;10498758;28;20078;-78
2023/01/08 16:59:27;;;;;;;13.23;4.45;;;;;;;-10.43;68.98;102148.41;10545626;28;20043;-82
2023/01/08 17:04:28;;;;;;;11.20;4.38;;;;;;;-10.42;68.83;102158.69;10545740;28;20043;-88
2023/01/08 17:09:29;;;;;;;11.13;3.80;;;;;;;-10.36;68.86;102179.28;10537503;28;20035;-79
2023/01/08 17:14:30;;;;;;;12.95;4.32;;;;;;;-10.41;68.70;102168.13;10526596;28;20054;-80
2023/01/08 17:19:31;;;;;;;12.73;4.10;;;;;;;-10.57;68.77;102158.59;10544511;28;20075;-78
2023/01/08 17:24:32;;;;;;;9.10;3.92;;;;;;;-11.00;68.59;102086.41;10536899;28;20048;-78
2023/01/08 17:29:33;;;;;;;8.35;4.00;;;;;;;-10.57;68.64;102154.31;10532416;28;20048;-79
2023/01/08 17:34:34;;;;;;;9.98;4.30;;;;;;;-11.40;68.55;102032.22;10534402;28;20036;-82
2023/01/08 17:39:35;;;;;;;10.15;4.38;;;;;;;-11.43;68.63;102046.72;10533402;28;20043;-82
2023/01/08 17:44:36;;;;;;;8.93;3.75;;;;;;;-11.13;68.62;102108.53;10545203;28;20044;-82
2023/01/08 17:49:37;;;;;;;9.65;4.03;;;;;;;-11.27;69.09;102103.31;10529705;28;20040;-84
2023/01/08 17:54:38;;;;;;;9.50;4.50;;;;;;;-11.20;69.29;102145.25;10553227;28;20044;-82
2023/01/08 17:59:38;;;;;;;13.60;5.35;;;;;;;-11.21;69.61;102156.38;10551910;28;20084;-84
2023/01/08 18:04:40;;;;;;;15.07;6.43;;;;;;;-11.38;69.58;102145.09;10534880;28;20036;-84
2023/01/08 18:09:43;;;;;;;10.05;4.22;;;;;;;-11.29;70.02;102158.00;10539748;28;20069;-84
2023/01/08 18:14:44;;;;;;;12.13;4.60;;;;;;;-11.28;69.87;102149.44;10524575;28;20130;-83
2023/01/08 18:19:45;;;;;;;13.55;4.78;;;;;;;-11.37;70.10;102137.41;10524802;28;20158;-84
2023/01/08 18:24:46;;;;;;;11.00;4.90;;;;;;;-11.63;70.21;102102.97;10533363;28;20037;-84
2023/01/08 18:29:47;;;;;;;11.10;4.60;;;;;;;-11.78;70.09;102108.78;10532968;28;20040;-82
2023/01/08 18:34:47;;;;;;;10.48;4.10;;;;;;;-11.44;70.64;102171.53;10555044;28;20499;-85
2023/01/08 18:39:49;;;;;;;8.70;3.75;;;;;;;-12.10;70.55;102044.41;10545905;28;20778;-82
2023/01/08 18:44:53;;;;;;;8.18;4.00;;;;;;;-11.42;71.06;102169.00;10549101;28;20046;-83
2023/01/08 18:49:57;;;;;;;8.52;4.20;;;;;;;-11.36;70.93;102203.25;10559514;28;20076;-83
2023/01/08 18:54:57;;;;;;;;;;;;;;;-11.45;71.55;102200.59;10539383;28;20575;-81
2023/01/08 18:59:58;;;;;;;11.23;4.25;;;;;;;-11.93;71.01;102176.16;10550840;28;20022;-82
2023/01/08 19:04:59;;;;;;;10.25;4.28;;;;;;;-12.39;71.63;102115.75;10549256;28;20047;-83
2023/01/08 19:10:00;;;;;;;11.05;4.35;;;;;;;-12.21;72.10;102149.28;10523736;28;20493;-82
2023/01/08 19:15:01;;;;;;;20.27;6.57;;;;;;;-12.14;72.18;102170.72;10523747;28;20056;-80
2023/01/08 19:20:03;;;;;;;16.90;4.47;;;;;;;-12.06;72.34;102194.75;10540906;28;20093;-82
2023/01/08 19:25:04;;;;;;;10.13;4.65;;;;;;;-12.15;72.67;102186.94;10540221;28;20051;-82
2023/01/08 19:30:06;;;;;;;12.90;4.30;;;;;;;-12.25;72.55;102176.56;10541361;28;20551;-83
2023/01/08 19:35:07;;;;;;;9.50;3.70;;;;;;;-12.43;72.92;102173.75;10539560;28;20040;-82
2023/01/08 19:40:08;;;;;;;9.45;4.00;;;;;;;-12.50;72.66;102184.72;10540389;28;20043;-82
2023/01/08 19:45:09;;;;;;;10.90;4.50;;;;;;;-12.48;73.53;102204.41;10539738;28;20036;-82
2023/01/08 19:50:10;;;;;;;10.35;4.43;;;;;;;-12.66;72.99;102196.44;10539347;28;20669;-82
2023/01/08 19:55:11;;;;;;;12.10;4.35;;;;;;;-12.72;72.85;102201.47;10539408;28;20044;-83
2023/01/08 20:00:12;;;;;;;10.70;4.22;;;;;;;-13.09;72.64;102149.69;10551072;28;20040;-82
2023/01/08 20:05:13;;;;;;;9.38;4.65;;;;;;;-12.80;73.56;102205.59;10558101;28;20044;-83
2023/01/08 20:10:14;;;;;;;11.68;5.10;;;;;;;-12.90;73.65;102192.66;10556032;28;20043;-83
2023/01/08 20:15:17;;;;;;;8.55;3.55;;;;;;;-13.50;73.03;102096.19;10558042;28;20508;-83
2023/01/08 20:20:17;;;;;;;8.93;4.20;;;;;;;-14.01;72.80;102025.44;10551525;28;20040;-83
2023/01/08 20:25:18;;;;;;;11.35;4.25;;;;;;;-12.95;73.18;102224.09;10507952;28;20055;-82
2023/01/08 20:30:19;;;;;;;13.75;3.65;;;;;;;-13.08;73.28;102217.91;10494525;28;20044;-81
2023/01/08 20:35:20;;;;;;;12.50;4.13;;;;;;;-13.05;73.01;102237.56;10495564;28;20037;-80
2023/01/08 20:40:21;;;;;;;8.43;4.22;;;;;;;-13.68;73.01;102140.16;10494683;28;20105;-81
2023/01/08 20:45:21;;;;;;;16.08;4.95;;;;;;;-13.32;73.28;102189.38;10496449;28;20040;-80
2023/01/08 20:50:22;;;;;;;9.52;3.58;;;;;;;-13.27;72.69;102203.13;10495053;28;20105;-81
2023/01/08 20:55:23;;;;;;;10.65;4.50;;;;;;;-13.93;72.89;102115.84;10495771;28;20065;-81
2023/01/08 21:00:24;;;;;;;10.57;4.32;;;;;;;-13.67;73.47;102167.47;10495184;28;20043;-81
2023/01/08 21:05:25;;;;;;;11.45;4.28;;;;;;;-13.29;73.66;102236.31;10494688;28;20044;-80
2023/01/08 21:10:26;;;;;;;10.65;4.00;;;;;;;-13.43;73.24;102218.19;10494723;28;20063;-81
2023/01/08 21:15:27;;;;;;;14.10;4.88;;;;;;;-13.50;73.38;102211.22;10495121;28;20106;-81
2023/01/08 21:20:28;;;;;;;8.70;4.07;;;;;;;-13.28;72.84;102238.06;10494726;28;20048;-80
2023/01/08 21:25:29;;;;;;;19.40;5.68;;;;;;;-13.29;72.69;102232.91;10496103;28;20119;-80
2023/01/08 21:30:30;;;;;;;31.13;11.63;;;;;;;-13.39;73.44;102217.41;10493764;28;20487;-78
2023/01/08 21:35:32;;;;;;;36.83;13.93;;;;;;;-13.32;73.22;102241.38;10495588;28;20076;-80
2023/01/08 21:40:33;;;;;;;26.48;9.88;;;;;;;-14.05;72.87;102121.56;10494558;28;20528;-80
2023/01/08 21:45:34;;;;;;;23.27;8.32;;;;;;;-13.43;73.10;102250.53;10502163;28;20058;-80
2023/01/08 21:50:35;;;;;;;19.20;6.95;;;;;;;-13.60;72.51;102245.09;10503171;28;20042;-79
2023/01/08 21:55:36;;;;;;;17.80;5.47;;;;;;;-14.31;72.21;102125.28;10502183;28;20037;-80
2023/01/08 22:00:37;;;;;;;16.73;5.80;;;;;;;-13.88;72.43;102224.09;10501316;28;20044;-80
2023/01/08 22:05:38;;;;;;;13.80;4.82;;;;;;;-14.11;72.41;102192.09;10501724;28;20075;-79
2023/01/08 22:10:39;;;;;;;26.08;7.63;;;;;;;-13.91;72.78;102234.22;10502455;28;20520;-80
2023/01/08 22:15:40;;;;;;;35.67;11.02;;;;;;;-13.83;72.76;102237.81;10501809;28;20056;-80
2023/01/08 22:20:45;;;;;;;13.43;6.68;;;;;;;-14.47;71.90;102141.09;10500349;28;20044;-80
2023/01/08 22:25:46;;;;;;;14.10;6.75;;;;;;;-14.26;72.31;102206.25;10500447;28;20376;-80
2023/01/08 22:30:47;;;;;;;14.43;6.10;;;;;;;-14.43;72.00;102216.91;10506650;28;20037;-79
2023/01/08 22:35:47;;;;;;;10.18;4.68;;;;;;;-14.18;71.97;102261.72;10541962;28;20384;-81
2023/01/08 22:40:48;;;;;;;9.95;4.32;;;;;;;-14.48;71.97;102227.00;10502570;28;20036;-80
2023/01/08 22:45:54;;;;;;;10.85;4.22;;;;;;;-14.12;72.77;102279.72;10510893;28;20475;-80
2023/01/08 22:51:00;;;;;;;13.18;6.10;;;;;;;-14.65;72.39;102188.38;10540175;28;20036;-80
2023/01/08 22:56:04;;;;;;;13.30;4.93;;;;;;;-14.31;72.62;102281.00;10541164;28;20047;-80
2023/01/08 23:01:13;;;;;;;15.00;5.65;;;;;;;-14.50;72.83;102259.28;10535560;28;20074;-80